createdAt,value
2023-04-18T00:00:31.765Z,95.59
2023-04-18T00:03:00.915Z,95.55
2023-04-18T00:05:30.448Z,95.41
2023-04-18T00:07:57.128Z,95.50
2023-04-18T00:10:23.925Z,95.55
2023-04-18T00:12:51.705Z,95.63
2023-04-18T00:15:18.760Z,95.70
2023-04-18T00:17:45.433Z,95.74
2023-04-18T00:20:12.997Z,95.77
2023-04-18T00:22:43.974Z,95.81
2023-04-18T00:25:11.425Z,95.61
2023-04-18T00:27:39.056Z,95.99
2023-04-18T00:30:07.007Z,95.77
2023-04-18T00:32:33.608Z,95.90
2023-04-18T00:35:00.376Z,95.70
2023-04-18T00:37:27.323Z,95.89
2023-04-18T00:39:54.252Z,95.73
2023-04-18T00:42:22.130Z,95.82
2023-04-18T00:44:49.316Z,95.88
2023-04-18T00:47:19.974Z,95.75
2023-04-18T00:49:49.106Z,95.66
2023-04-18T00:52:16.721Z,95.68
2023-04-18T00:54:44.778Z,95.60
2023-04-18T00:57:12.590Z,95.59
2023-04-18T00:59:39.405Z,95.58
2023-04-18T01:02:06.351Z,95.46
2023-04-18T01:04:33.736Z,95.41
2023-04-18T01:07:02.721Z,95.51
2023-04-18T01:09:29.576Z,95.43
2023-04-18T01:11:56.372Z,95.27
2023-04-18T01:14:23.637Z,95.54
2023-04-18T01:16:50.477Z,95.52
2023-04-18T01:19:17.608Z,95.33
2023-04-18T01:21:44.526Z,95.25
2023-04-18T01:24:14.031Z,95.25
2023-04-18T01:26:43.831Z,95.28
2023-04-18T01:29:10.650Z,95.29
2023-04-18T01:31:38.863Z,95.22
2023-04-18T01:34:06.708Z,95.44
2023-04-18T01:36:34.022Z,95.34
2023-04-18T01:39:00.974Z,95.32
2023-04-18T01:41:30.145Z,95.27
2023-04-18T01:43:56.850Z,95.19
2023-04-18T01:46:23.767Z,95.40
2023-04-18T01:48:50.506Z,95.19
2023-04-18T01:51:17.335Z,95.20
2023-04-18T01:53:44.120Z,95.43
2023-04-18T01:56:10.897Z,95.46
2023-04-18T01:58:37.750Z,95.62
2023-04-18T02:01:04.766Z,95.40
2023-04-18T02:03:31.626Z,95.54
2023-04-18T02:05:58.589Z,95.47
2023-04-18T02:08:25.291Z,95.70
2023-04-18T02:10:52.081Z,95.60
2023-04-18T02:13:18.764Z,95.94
2023-04-18T02:15:49.032Z,95.92
2023-04-18T02:18:16.140Z,95.74
2023-04-18T02:20:42.799Z,95.75
2023-04-18T02:23:09.695Z,95.71
2023-04-18T02:25:36.409Z,95.78
2023-04-18T02:28:03.185Z,96.02
2023-04-18T02:30:29.837Z,95.97
2023-04-18T02:32:59.374Z,95.73
2023-04-18T02:35:27.782Z,95.92
2023-04-18T02:37:54.498Z,95.68
2023-04-18T02:40:21.224Z,95.84
2023-04-18T02:42:47.986Z,95.60
2023-04-18T02:45:14.688Z,95.50
2023-04-18T02:47:53.889Z,95.78
2023-04-18T02:50:22.737Z,95.64
2023-04-18T02:52:49.517Z,95.71
2023-04-18T02:55:16.490Z,95.83
2023-04-18T02:57:43.357Z,95.81
2023-04-18T03:00:10.540Z,95.64
2023-04-18T03:02:37.382Z,96.06
2023-04-18T03:05:04.432Z,95.85
2023-04-18T03:07:31.360Z,95.76
2023-04-18T03:10:00.048Z,95.63
2023-04-18T03:12:28.766Z,95.53
2023-04-18T03:14:55.606Z,95.77
2023-04-18T03:17:22.593Z,95.61
2023-04-18T03:19:49.378Z,95.56
2023-04-18T03:22:16.591Z,95.49
2023-04-18T03:24:43.250Z,95.55
2023-04-18T03:27:09.955Z,95.73
2023-04-18T03:29:36.611Z,95.63
2023-04-18T03:32:03.693Z,95.71
2023-04-18T03:34:30.544Z,95.62
2023-04-18T03:36:57.236Z,95.49
2023-04-18T03:39:24.977Z,95.42
2023-04-18T03:41:52.360Z,95.54
2023-04-18T03:44:19.133Z,95.32
2023-04-18T03:46:46.010Z,95.36
2023-04-18T03:49:12.819Z,95.22
2023-04-18T03:51:50.025Z,95.45
2023-04-18T03:54:17.303Z,95.25
2023-04-18T03:56:44.923Z,95.32
2023-04-18T03:59:12.306Z,95.33
2023-04-18T04:01:39.023Z,95.19
2023-04-18T04:04:06.230Z,95.26
2023-04-18T04:06:33.066Z,95.21
2023-04-18T04:08:59.848Z,95.24
2023-04-18T04:11:27.202Z,94.79
2023-04-18T04:13:53.931Z,95.04
2023-04-18T04:16:20.850Z,94.75
2023-04-18T04:18:47.646Z,94.61
2023-04-18T04:21:14.310Z,94.82
2023-04-18T04:23:42.701Z,94.71
2023-04-18T04:26:09.953Z,94.61
2023-04-18T04:28:36.710Z,94.56
2023-04-18T04:31:07.045Z,94.67
2023-04-18T04:33:34.042Z,94.31
2023-04-18T04:36:01.429Z,94.36
2023-04-18T04:38:31.222Z,94.29
2023-04-18T04:40:58.859Z,94.22
2023-04-18T04:43:26.524Z,94.17
2023-04-18T04:45:53.939Z,94.18
2023-04-18T04:48:22.346Z,94.14
2023-04-18T04:50:57.319Z,93.95
2023-04-18T04:53:26.333Z,93.62
2023-04-18T04:55:54.101Z,93.65
2023-04-18T04:58:21.003Z,93.30
2023-04-18T05:00:48.142Z,92.94
2023-04-18T05:03:15.052Z,92.42
2023-04-18T05:05:41.953Z,91.05
2023-04-18T05:08:08.681Z,89.63
2023-04-18T05:10:37.393Z,88.44
2023-04-18T05:13:04.473Z,87.05
2023-04-18T05:15:31.900Z,86.10
2023-04-18T05:17:58.859Z,85.01
2023-04-18T05:20:25.725Z,84.44
2023-04-18T05:22:52.531Z,84.58
2023-04-18T05:25:19.737Z,85.31
2023-04-18T05:27:47.264Z,86.42
2023-04-18T05:30:14.432Z,87.11
2023-04-18T05:32:41.240Z,87.47
2023-04-18T05:35:08.677Z,88.09
2023-04-18T05:37:35.416Z,88.17
2023-04-18T05:40:02.141Z,88.52
2023-04-18T05:42:28.788Z,88.81
2023-04-18T05:44:55.657Z,89.35
2023-04-18T05:47:24.246Z,89.78
2023-04-18T05:49:51.241Z,89.58
2023-04-18T05:52:17.952Z,89.71
2023-04-18T05:54:44.704Z,89.51
2023-04-18T05:57:12.293Z,89.77
2023-04-18T05:59:39.089Z,89.81
2023-04-18T06:02:06.722Z,90.02
2023-04-18T06:04:33.648Z,89.89
2023-04-18T06:07:00.444Z,89.88
2023-04-18T06:09:27.421Z,89.91
2023-04-18T06:11:54.157Z,89.98
2023-04-18T06:14:21.041Z,89.79
2023-04-18T06:16:47.831Z,89.84
2023-04-18T06:19:15.004Z,89.99
2023-04-18T06:21:43.008Z,90.08
2023-04-18T06:24:10.117Z,90.06
2023-04-18T06:26:36.853Z,90.17
2023-04-18T06:29:03.490Z,90.25
2023-04-18T06:31:30.252Z,89.89
2023-04-18T06:33:57.017Z,89.81
2023-04-18T06:36:23.916Z,89.46
2023-04-18T06:38:50.698Z,89.39
2023-04-18T06:41:17.429Z,89.15
2023-04-18T06:43:59.245Z,89.47
2023-04-18T06:46:28.789Z,89.27
2023-04-18T06:48:56.589Z,89.24
2023-04-18T06:51:23.330Z,89.32
2023-04-18T06:53:52.902Z,89.07
2023-04-18T06:56:20.794Z,89.10
2023-04-18T06:58:48.094Z,89.01
2023-04-18T07:01:14.978Z,88.93
2023-04-18T07:03:43.363Z,88.84
2023-04-18T07:06:11.134Z,88.80
2023-04-18T07:08:38.120Z,88.67
2023-04-18T07:11:06.267Z,88.21
2023-04-18T07:13:32.955Z,87.38
2023-04-18T07:15:59.893Z,87.49
2023-04-18T07:18:36.657Z,87.35
2023-04-18T07:21:07.842Z,86.92
2023-04-18T07:23:35.301Z,86.77
2023-04-18T07:26:03.302Z,86.73
2023-04-18T07:28:31.823Z,86.26
2023-04-18T07:30:59.319Z,84.83
2023-04-18T07:33:27.058Z,84.42
2023-04-18T07:35:53.707Z,84.26
2023-04-18T07:38:21.803Z,84.03
2023-04-18T07:40:56.935Z,83.52
2023-04-18T07:43:23.673Z,82.90
2023-04-18T07:45:50.483Z,83.07
2023-04-18T07:48:17.934Z,82.96
2023-04-18T07:50:44.605Z,82.48
2023-04-18T07:53:11.331Z,82.66
2023-04-18T07:55:37.966Z,82.23
2023-04-18T07:58:04.745Z,81.53
2023-04-18T08:00:32.858Z,81.37
2023-04-18T08:02:59.701Z,80.99
2023-04-18T08:05:26.560Z,80.91
2023-04-18T08:07:53.454Z,80.39
2023-04-18T08:10:22.461Z,79.00
2023-04-18T08:12:50.388Z,78.11
2023-04-18T08:15:17.188Z,77.16
2023-04-18T08:17:45.401Z,77.12
2023-04-18T08:20:13.188Z,76.98
2023-04-18T08:22:53.871Z,76.47
2023-04-18T08:25:26.909Z,75.92
2023-04-18T08:27:53.650Z,75.75
2023-04-18T08:30:20.549Z,75.83
2023-04-18T08:32:47.380Z,75.60
2023-04-18T08:35:14.122Z,75.38
2023-04-18T08:37:40.957Z,75.33
2023-04-18T08:40:08.285Z,74.74
2023-04-18T08:42:36.705Z,73.91
2023-04-18T08:45:04.385Z,73.38
2023-04-18T08:47:32.637Z,71.92
2023-04-18T08:49:59.294Z,71.57
2023-04-18T08:52:28.534Z,71.48
2023-04-18T08:54:55.327Z,71.47
2023-04-18T08:57:23.938Z,71.40
2023-04-18T08:59:51.208Z,71.25
2023-04-18T09:02:19.478Z,71.21
2023-04-18T09:04:49.387Z,70.91
2023-04-18T09:07:17.125Z,70.58
2023-04-18T09:09:50.554Z,70.89
2023-04-18T09:12:25.514Z,71.00
2023-04-18T09:14:58.313Z,70.07
2023-04-18T09:17:37.162Z,69.80
2023-04-18T09:20:10.084Z,69.14
2023-04-18T09:23:05.525Z,69.75
2023-04-18T09:25:36.015Z,69.76
2023-04-18T09:28:04.917Z,68.09
2023-04-18T09:30:37.089Z,67.33
2023-04-18T09:33:07.725Z,67.48
2023-04-18T09:35:34.899Z,66.77
2023-04-18T09:38:01.871Z,67.05
2023-04-18T09:40:28.821Z,66.69
2023-04-18T09:42:55.640Z,66.30
2023-04-18T09:45:24.099Z,65.75
2023-04-18T09:47:52.185Z,66.01
2023-04-18T09:50:20.956Z,65.01
2023-04-18T09:52:48.630Z,65.31
2023-04-18T09:55:18.755Z,65.24
2023-04-18T09:57:46.394Z,64.38
2023-04-18T10:00:30.380Z,64.77
2023-04-18T10:03:10.761Z,64.55
2023-04-18T10:05:40.773Z,65.10
2023-04-18T10:08:08.663Z,64.79
2023-04-18T10:10:38.542Z,64.80
2023-04-18T10:13:08.556Z,63.88
2023-04-18T10:15:35.492Z,63.34
2023-04-18T10:18:07.153Z,64.15
2023-04-18T10:20:35.499Z,64.03
2023-04-18T10:23:35.059Z,63.27
2023-04-18T10:26:03.241Z,62.61
2023-04-18T10:29:02.793Z,63.04
2023-04-18T10:31:29.551Z,62.61
2023-04-18T10:36:30.486Z,62.52
2023-04-18T10:39:04.050Z,61.85
2023-04-18T10:41:31.579Z,61.21
2023-04-18T10:44:08.511Z,61.05
2023-04-18T10:46:56.738Z,60.78
2023-04-18T10:49:27.421Z,60.04
2023-04-18T10:51:58.575Z,60.04
2023-04-18T10:54:31.134Z,59.08
2023-04-18T10:56:59.640Z,58.45
2023-04-18T10:59:27.148Z,59.04
2023-04-18T11:01:57.453Z,57.73
2023-04-18T11:04:25.669Z,56.59
2023-04-18T11:06:58.889Z,56.86
2023-04-18T11:09:25.745Z,57.09
2023-04-18T11:12:04.551Z,57.04
2023-04-18T11:14:46.499Z,56.85
2023-04-18T11:17:27.158Z,53.85
2023-04-18T11:20:14.375Z,52.39
2023-04-18T11:22:51.229Z,52.35
2023-04-18T11:25:22.413Z,52.20
2023-04-18T11:27:52.009Z,51.66
2023-04-18T11:30:19.023Z,50.76
2023-04-18T11:32:46.124Z,50.83
2023-04-18T11:35:14.727Z,51.29
2023-04-18T11:37:42.674Z,51.67
2023-04-18T11:40:10.257Z,52.83
2023-04-18T11:42:39.334Z,52.56
2023-04-18T11:45:13.325Z,52.34
2023-04-18T11:47:42.183Z,51.90
2023-04-18T11:50:11.509Z,50.25
2023-04-18T11:52:40.409Z,50.14
2023-04-18T11:55:21.531Z,49.34
2023-04-18T11:57:59.546Z,49.34
2023-04-18T12:00:41.889Z,49.00
2023-04-18T12:03:16.539Z,49.35
2023-04-18T12:05:43.746Z,49.36
2023-04-18T12:08:12.011Z,49.66
2023-04-18T12:10:45.652Z,49.82
2023-04-18T12:13:12.620Z,49.93
2023-04-18T12:15:43.610Z,49.85
2023-04-18T12:18:12.683Z,50.11
2023-04-18T12:20:51.820Z,49.65
2023-04-18T12:23:36.287Z,49.81
2023-04-18T12:26:14.748Z,50.05
2023-04-18T12:28:45.827Z,49.74
2023-04-18T12:31:13.585Z,49.38
2023-04-18T12:33:40.270Z,49.18
2023-04-18T12:36:08.806Z,48.86
2023-04-18T12:38:35.821Z,48.92
2023-04-18T12:41:02.966Z,48.19
2023-04-18T12:43:29.804Z,47.91
2023-04-18T12:45:56.739Z,48.22
2023-04-18T12:48:23.568Z,47.66
2023-04-18T12:50:50.433Z,47.27
2023-04-18T12:53:17.123Z,46.69
2023-04-18T12:55:43.846Z,46.34
2023-04-18T12:58:10.554Z,46.45
2023-04-18T13:00:37.433Z,47.12
2023-04-18T13:03:05.464Z,46.97
2023-04-18T13:05:33.959Z,47.57
2023-04-18T13:10:31.655Z,47.08
2023-04-18T13:12:58.410Z,47.52
2023-04-18T13:15:26.237Z,47.25
2023-04-18T13:17:53.336Z,47.72
2023-04-18T13:20:20.131Z,47.47
2023-04-18T13:22:46.897Z,45.97
2023-04-18T13:25:13.991Z,45.51
2023-04-18T13:27:42.162Z,45.77
2023-04-18T13:30:11.187Z,44.98
2023-04-18T13:32:39.377Z,45.06
2023-04-18T13:35:08.769Z,44.40
2023-04-18T13:37:35.773Z,43.24
2023-04-18T13:40:05.573Z,42.93
2023-04-18T13:42:36.503Z,42.85
2023-04-18T13:45:04.035Z,43.05
2023-04-18T13:47:32.478Z,42.57
2023-04-18T13:49:59.526Z,42.92
2023-04-18T13:52:26.314Z,42.94
2023-04-18T13:54:53.287Z,43.50
2023-04-18T13:57:20.129Z,43.44
2023-04-18T13:59:46.990Z,44.54
2023-04-18T14:02:13.957Z,44.65
2023-04-18T14:04:41.067Z,45.60
2023-04-18T14:07:08.236Z,46.50
2023-04-18T14:09:35.155Z,47.30
2023-04-18T14:12:02.310Z,47.75
2023-04-18T14:14:29.453Z,48.50
2023-04-18T14:16:56.157Z,48.39
2023-04-18T14:19:22.966Z,49.17
2023-04-18T14:21:49.797Z,49.43
2023-04-18T14:24:16.920Z,49.46
2023-04-18T14:26:44.159Z,49.77
2023-04-18T14:29:11.320Z,50.05
2023-04-18T14:31:38.514Z,50.40
2023-04-18T14:34:05.794Z,50.93
2023-04-18T14:36:33.188Z,51.70
2023-04-18T14:38:59.895Z,52.10
2023-04-18T14:41:26.616Z,52.02
2023-04-18T14:43:53.356Z,51.92
2023-04-18T14:46:21.209Z,52.59
2023-04-18T14:48:47.947Z,52.68
2023-04-18T14:51:16.885Z,52.78
2023-04-18T14:53:44.819Z,53.28
2023-04-18T14:56:12.583Z,53.47
2023-04-18T14:58:39.293Z,53.74
2023-04-18T15:01:06.170Z,53.02
2023-04-18T15:03:33.416Z,52.69
2023-04-18T15:06:00.498Z,52.36
2023-04-18T15:08:27.390Z,52.74
2023-04-18T15:10:54.145Z,52.95
2023-04-18T15:13:21.044Z,52.92
2023-04-18T15:15:54.980Z,52.79
2023-04-18T15:18:21.910Z,52.21
2023-04-18T15:20:48.793Z,52.16
2023-04-18T15:23:16.073Z,51.53
2023-04-18T15:25:44.575Z,51.79
2023-04-18T15:28:13.394Z,52.21
2023-04-18T15:30:40.324Z,52.05
2023-04-18T15:33:07.304Z,52.42
2023-04-18T15:35:34.028Z,52.71
2023-04-18T15:38:00.802Z,52.79
2023-04-18T15:40:27.681Z,52.75
2023-04-18T15:42:54.742Z,53.09
2023-04-18T15:45:21.956Z,53.42
2023-04-18T15:47:48.763Z,53.96
2023-04-18T15:50:16.563Z,55.29
2023-04-18T15:52:43.473Z,56.19
2023-04-18T15:55:13.671Z,56.95
2023-04-18T15:57:43.264Z,57.52
2023-04-18T16:00:17.612Z,58.02
2023-04-18T16:02:45.873Z,58.34
2023-04-18T16:05:13.341Z,58.87
2023-04-18T16:07:41.502Z,58.89
2023-04-18T16:10:10.911Z,59.25
2023-04-18T16:12:39.268Z,59.62
2023-04-18T16:15:08.706Z,59.95
2023-04-18T16:17:38.346Z,60.39
2023-04-18T16:20:06.624Z,60.31
2023-04-18T16:22:33.530Z,60.65
2023-04-18T16:25:00.508Z,61.29
2023-04-18T16:27:27.356Z,61.83
2023-04-18T16:29:54.625Z,62.48
2023-04-18T16:32:22.401Z,63.06
2023-04-18T16:34:49.162Z,63.18
2023-04-18T16:37:15.988Z,63.57
2023-04-18T16:39:45.428Z,64.01
2023-04-18T16:56:39.050Z,65.52
2023-04-18T16:59:05.921Z,65.66
2023-04-18T17:01:34.108Z,65.93
2023-04-18T17:04:01.513Z,65.88
2023-04-18T17:06:28.329Z,66.17
2023-04-18T17:08:55.018Z,66.31
2023-04-18T17:11:21.716Z,66.50
2023-04-18T17:13:50.291Z,66.77
2023-04-18T17:16:17.951Z,67.13
2023-04-18T17:18:44.723Z,67.17
2023-04-18T17:21:12.737Z,67.53
2023-04-18T17:23:41.706Z,68.03
2023-04-18T17:26:11.174Z,68.17
2023-04-18T17:28:37.837Z,68.57
2023-04-18T17:31:04.893Z,68.69
2023-04-18T17:33:31.843Z,68.88
2023-04-18T17:35:58.794Z,69.10
2023-04-18T17:38:25.716Z,69.51
2023-04-18T17:41:02.799Z,69.67
2023-04-18T17:43:29.634Z,69.94
2023-04-18T17:45:59.146Z,70.03
2023-04-18T17:48:26.776Z,70.36
2023-04-18T17:50:53.478Z,70.61
2023-04-18T17:53:20.214Z,70.58
2023-04-18T17:55:49.034Z,70.53
2023-04-18T17:58:17.026Z,70.97
2023-04-18T18:00:43.755Z,70.86
2023-04-18T18:03:13.978Z,70.86
2023-04-18T18:05:42.292Z,71.28
2023-04-18T18:08:09.058Z,71.05
2023-04-18T18:10:35.893Z,71.02
2023-04-18T18:13:03.488Z,71.16
2023-04-18T18:15:30.988Z,71.47
2023-04-18T18:17:58.250Z,71.41
2023-04-18T18:20:25.038Z,71.63
2023-04-18T18:22:52.896Z,71.67
2023-04-18T18:25:21.976Z,71.74
2023-04-18T18:27:49.550Z,72.14
2023-04-18T18:30:16.354Z,71.84
2023-04-18T18:32:43.155Z,72.09
2023-04-18T18:35:09.982Z,72.19
2023-04-18T18:37:36.666Z,72.22
2023-04-18T18:40:05.077Z,72.30
2023-04-18T18:42:31.776Z,72.36
2023-04-18T18:44:58.456Z,72.38
2023-04-18T18:47:25.194Z,72.59
2023-04-18T18:49:51.864Z,72.84
2023-04-18T18:52:18.888Z,72.88
2023-04-18T18:54:45.514Z,73.12
2023-04-18T18:57:12.382Z,73.18
2023-04-18T18:59:38.977Z,73.50
2023-04-18T19:02:08.618Z,73.52
2023-04-18T19:04:35.610Z,73.39
2023-04-18T19:07:02.384Z,73.24
2023-04-18T19:09:29.016Z,73.09
2023-04-18T19:11:57.039Z,73.35
2023-04-18T19:14:26.335Z,73.30
2023-04-18T19:16:53.267Z,73.52
2023-04-18T19:19:20.042Z,73.59
2023-04-18T19:21:46.728Z,73.38
2023-04-18T19:24:13.669Z,73.87
2023-04-18T19:26:41.941Z,73.87
2023-04-18T19:29:12.703Z,74.11
2023-04-18T19:31:40.154Z,74.39
2023-04-18T19:34:06.914Z,74.63
2023-04-18T19:36:33.686Z,74.85
2023-04-18T19:39:00.388Z,75.03
2023-04-18T19:41:27.067Z,75.57
2023-04-18T19:43:53.867Z,75.67
2023-04-18T19:46:20.708Z,75.91
2023-04-18T19:48:47.438Z,76.23
2023-04-18T19:51:14.109Z,76.71
2023-04-18T19:53:40.826Z,76.57
2023-04-18T19:56:10.917Z,76.57
2023-04-18T19:58:46.289Z,76.95
2023-04-18T20:01:14.444Z,77.06
2023-04-18T20:03:41.499Z,77.09
2023-04-18T20:06:09.058Z,77.25
2023-04-18T20:08:37.010Z,77.30
2023-04-18T20:11:08.278Z,77.48
2023-04-18T20:13:36.780Z,77.61
2023-04-18T20:16:09.042Z,77.69
2023-04-18T20:18:37.950Z,78.20
2023-04-18T20:21:07.349Z,77.99
2023-04-18T20:23:35.089Z,77.98
2023-04-18T20:26:01.929Z,77.90
2023-04-18T20:28:28.734Z,77.81
2023-04-18T20:30:56.161Z,78.08
2023-04-18T20:33:28.767Z,77.88
2023-04-18T20:35:57.520Z,77.95
2023-04-18T20:38:26.013Z,78.17
2023-04-18T20:40:54.400Z,78.34
2023-04-18T20:43:21.582Z,78.63
2023-04-18T20:45:51.261Z,78.64
2023-04-18T20:48:18.473Z,78.54
2023-04-18T20:50:51.196Z,78.94
2023-04-18T20:53:22.522Z,79.03
2023-04-18T20:55:49.407Z,79.07
2023-04-18T20:58:16.252Z,79.09
2023-04-18T21:00:44.696Z,79.19
2023-04-18T21:03:14.947Z,79.46
2023-04-18T21:05:43.293Z,79.64
2023-04-18T21:08:11.052Z,79.63
2023-04-18T21:10:37.795Z,79.71
2023-04-18T21:13:04.462Z,80.09
2023-04-18T21:15:31.151Z,80.45
2023-04-18T21:17:57.898Z,80.90
2023-04-18T21:20:24.805Z,80.73
2023-04-18T21:22:51.491Z,81.10
2023-04-18T21:25:19.772Z,81.22
2023-04-18T21:27:46.413Z,81.60
2023-04-18T21:30:13.520Z,81.91
2023-04-18T21:32:40.244Z,81.93
2023-04-18T21:35:07.117Z,82.26
2023-04-18T21:37:33.899Z,82.70
2023-04-18T21:40:01.512Z,83.05
2023-04-18T21:42:28.328Z,83.32
2023-04-18T21:44:55.072Z,83.51
2023-04-18T21:47:22.306Z,83.58
2023-04-18T21:49:49.492Z,83.68
2023-04-18T21:52:16.337Z,83.98
2023-04-18T21:54:43.210Z,84.21
2023-04-18T21:57:09.913Z,84.34
2023-04-18T21:59:36.559Z,84.41
2023-04-18T22:02:03.375Z,84.54
2023-04-18T22:04:30.123Z,84.62
2023-04-18T22:06:57.682Z,84.69
2023-04-18T22:09:24.457Z,84.91
2023-04-18T22:11:52.033Z,85.08
2023-04-18T22:14:20.132Z,85.27
2023-04-18T22:16:46.921Z,85.24
2023-04-18T22:19:14.252Z,85.52
2023-04-18T22:21:41.080Z,85.49
2023-04-18T22:24:08.518Z,85.72
2023-04-18T22:26:35.261Z,86.07
2023-04-18T22:29:01.948Z,86.02
2023-04-18T22:31:29.001Z,86.02
2023-04-18T22:33:56.076Z,86.10
2023-04-18T22:36:22.816Z,86.21
2023-04-18T22:38:49.509Z,86.26
2023-04-18T22:41:16.324Z,86.49
2023-04-18T22:43:43.091Z,86.49
2023-04-18T22:46:09.965Z,86.58
2023-04-18T22:48:36.711Z,86.66
2023-04-18T22:51:03.653Z,86.62
2023-04-18T22:53:30.489Z,86.88
2023-04-18T22:55:57.465Z,87.25
2023-04-18T22:58:24.188Z,87.01
2023-04-18T23:00:50.990Z,87.15
2023-04-18T23:03:18.004Z,87.15
2023-04-18T23:05:44.758Z,87.00
2023-04-18T23:08:12.185Z,87.23
2023-04-18T23:10:39.233Z,87.45
2023-04-18T23:13:05.990Z,87.16
2023-04-18T23:15:32.702Z,87.39
2023-04-18T23:17:59.716Z,87.35
2023-04-18T23:20:26.421Z,87.36
2023-04-18T23:22:53.886Z,87.40
2023-04-18T23:25:20.581Z,87.48
2023-04-18T23:27:47.494Z,87.70
2023-04-18T23:30:15.334Z,87.45
2023-04-18T23:32:42.210Z,87.53
2023-04-18T23:35:09.525Z,87.65
2023-04-18T23:37:36.363Z,87.74
2023-04-18T23:40:06.913Z,87.84
2023-04-18T23:42:37.176Z,87.61
2023-04-18T23:45:04.607Z,87.61
2023-04-18T23:47:31.730Z,87.87
2023-04-18T23:49:58.636Z,87.70
2023-04-18T23:52:25.449Z,87.70
2023-04-18T23:54:52.091Z,87.60
2023-04-18T23:57:18.764Z,87.60
2023-04-18T23:59:45.340Z,87.63
